Watts Bar Observed Data For Previous 48 Hours

Caption
Day and Hour Reservoir Elevation (behind dam)* Tailwater Elevation (below dam)* Average Hourly Discharge*
5/24/2018 2 AM EDT 740.50 682.82 20,662
5/24/2018 3 AM EDT 740.55 682.75 19,963
5/24/2018 4 AM EDT 740.47 683.20 21,821
5/24/2018 5 AM EDT 740.44 683.66 37,820
5/24/2018 6 AM EDT 740.40 683.87 38,026
5/24/2018 7 AM EDT 740.39 683.93 38,066
5/24/2018 8 AM EDT 740.42 683.93 38,105
5/24/2018 9 AM EDT 740.43 683.86 38,191
5/24/2018 10 AM EDT 740.43 683.77 38,163
5/24/2018 11 AM EDT 740.44 683.65 38,187
5/24/2018 12 PM EDT 740.45 683.71 38,217
5/24/2018 1 PM EDT 740.43 683.78 38,204
5/24/2018 2 PM EDT 740.41 683.75 38,264
5/24/2018 3 PM EDT 740.41 683.71 38,153
5/24/2018 4 PM EDT 740.40 683.74 38,151
5/24/2018 5 PM EDT 740.39 683.72 38,212
5/24/2018 6 PM EDT 740.40 683.72 38,242
5/24/2018 7 PM EDT 740.40 683.72 38,199
5/24/2018 8 PM EDT 740.38 683.68 38,157
5/24/2018 9 PM EDT 740.37 683.67 38,175
5/24/2018 10 PM EDT 740.33 683.69 38,147
5/24/2018 11 PM EDT 740.32 683.71 38,141
5/25/2018 12 AM EDT 740.41 682.80 20,725
5/25/2018 1 AM EDT 740.46 682.72 20,010
5/25/2018 2 AM EDT 740.50 682.73 19,988
5/25/2018 3 AM EDT 740.52 682.91 19,955
5/25/2018 4 AM EDT 740.50 682.99 19,936
5/25/2018 5 AM EDT 740.49 683.03 19,939
5/25/2018 6 AM EDT 740.51 683.03 20,045
5/25/2018 7 AM EDT 740.55 682.94 19,981
5/25/2018 8 AM EDT 740.61 682.88 19,967
5/25/2018 9 AM EDT 740.54 683.33 21,837
5/25/2018 10 AM EDT 740.53 683.69 37,871
5/25/2018 11 AM EDT 740.60 683.68 38,053
5/25/2018 12 PM EDT 740.60 683.70 38,054
5/25/2018 1 PM EDT 740.58 683.65 38,121
5/25/2018 2 PM EDT 740.59 683.59 38,149
5/25/2018 3 PM EDT 740.57 683.51 38,086
5/25/2018 4 PM EDT 740.56 683.54 38,145
5/25/2018 5 PM EDT 740.55 683.53 38,106
5/25/2018 6 PM EDT 740.55 683.54 38,110
5/25/2018 7 PM EDT 740.54 683.54 38,096
5/25/2018 8 PM EDT 740.56 683.52 38,076
5/25/2018 9 PM EDT 740.53 683.53 38,097
5/25/2018 10 PM EDT 740.52 683.54 38,066
5/25/2018 11 PM EDT 740.52 683.53 38,063
5/26/2018 12 AM EDT 740.51 683.52 38,076
5/26/2018 1 AM EDT 740.51 683.52 38,076
5/26/2018 2 AM EDT 740.59 682.62 20,597
5/26/2018 3 AM EDT 740.65 682.58 20,058
5/26/2018 4 AM EDT 740.66 682.70 20,037
5/26/2018 5 AM EDT 740.64 682.77 20,077
5/26/2018 6 AM EDT 740.60 682.87 19,928
5/26/2018 7 AM EDT 740.62 682.88 19,933
5/26/2018 8 AM EDT 740.69 682.87 20,004
5/26/2018 9 AM EDT 740.74 682.81 20,021
5/26/2018 10 AM EDT 740.76 682.76 20,055
5/26/2018 11 AM EDT 740.67 683.22 21,901
5/26/2018 12 PM EDT 740.66 683.60 37,799
5/26/2018 1 PM EDT 740.68 683.63 37,950

Elevations are in feet above sea level. Discharges are in cubic feet per second and are reported at the end of the hour.